Terminal Aerodrome Forecast
Issued by NWS

Home | Current Version | Previous Version | Graphics & Text | Print | Product List | Glossary On
Versions: 1 2 3 4 5 6 7 8 9 10 11 12 13 14 15 16 17 18 19 20 21 22
000
FTUS43 KBIS 050122 AAC
TAFJMS
TAF AMD
KJMS 050122Z 0501/0524 VRB20G30KT 1/2SM +TSRA BKN025 BKN045CB
     FM050200 19006KT P6SM SCT035 BKN100
     FM051500 31012KT P6SM VCTS SCT060 BKN100CB=

USA.gov is the U.S. government's official web portal to all federal, state and local government web resources and services.